首页
METAR-TAF:

METAR-TAF

机场 :

錫達拉皮茲, 艾奥瓦州, 美国

纬度: 41-53-04N, 经度: 091-42-38W, 海拔: 263米

当前天气观测

该预报发布于27分钟前的17:52 UTC
风速12节,风向东转东北
温度 9°C
湿度 100%
气压 1001 hPa
能見度: 14.5公里
阴天层高于400英尺

METAR: KCID 281752Z 07012KT 9SM OVC004 09/09 A2956 RMK AO2 RAE24 PRESFR SLP013 P0019 60024 T00890089 10089 20072 56034

时间: 13:19 (18:19 UTC)

预报

该预报发布于59分钟前的17:20 UTC
预报有效从28日的 18点(UTC)到 29日的 18点(UTC)
风速13节,风向东转东北
能見度: 4.8公里
散云层高于200英尺
多云层高于500英尺
轻雾
从 28日的 1900点(UTC)
风速13节,风向南转南东
能見度: 10公里
散云层高于20000英尺
短暂存在
从 28日的 21点(UTC)到 28日的 24点(UTC)
风速35节,风向多变,有时为48节阵风
能見度: 1.2公里
多云层高于900英尺, 积雨云.
雷暴, 雨, 轻雾
从 29日的 0000点(UTC)
风速14节,风向南转西南,有时为22节阵风
能見度: 10公里
多云层高于4000英尺
从 29日的 0900点(UTC)
风速25节,风向西转西南,有时为33节阵风
能見度: 10公里
阴天层高于1500英尺

TAF: KCID 281720Z 2818/2918 07013KT 3SM BR SCT002 BKN005 FM281900 16013KT P6SM SCT200 TEMPO 2821/2824 VRB35G48KT 3/4SM TSRA BR BKN009CB FM290000 20014G22KT P6SM BKN040 FM290900 25025G33KT P6SM OVC015

超过4000个机场的气象观测和天气预报(METAR&TAF报告)。

可查询的气象台以黄色和红色小点在地图上表示。

将鼠标移到小点上方,可查看气象台名称。

然后点击查看天气观测和预报。

如需切换地图:点击带黑十字的绿色按钮放大地图;点击带横线的绿色按钮缩小地图;或者点击绿色箭头查看邻近地区的地图。


METAR-TAF: